createdAt,value
2019-02-07T00:01:56.978Z,98494.79
2019-02-07T00:04:27.783Z,98500.16
2019-02-07T00:06:58.351Z,98483.34
2019-02-07T00:09:29.552Z,98482.71
2019-02-07T00:12:00.093Z,98473.94
2019-02-07T00:14:49.513Z,98468.74
2019-02-07T00:17:21.154Z,98466.24
2019-02-07T00:19:52.117Z,98459.04
2019-02-07T00:22:23.016Z,98461.84
2019-02-07T00:24:53.849Z,98459.19
2019-02-07T00:27:24.810Z,98452.33
2019-02-07T00:29:55.710Z,98448.30
2019-02-07T00:32:27.276Z,98451.80
2019-02-07T00:34:57.823Z,98449.30
2019-02-07T00:37:29.070Z,98445.33
2019-02-07T00:39:59.868Z,98452.16
2019-02-07T00:42:30.687Z,98450.30
2019-02-07T00:45:01.598Z,98442.77
2019-02-07T00:47:32.102Z,98438.74
2019-02-07T00:50:02.738Z,98434.27
2019-02-07T00:52:33.243Z,98436.45
2019-02-07T00:55:04.018Z,98432.59
2019-02-07T00:57:35.103Z,98440.58
2019-02-07T01:00:07.893Z,98434.91
2019-02-07T01:02:39.128Z,98434.84
2019-02-07T01:05:11.273Z,98425.00
2019-02-07T01:07:42.116Z,98418.72
2019-02-07T01:10:16.134Z,98411.96
2019-02-07T01:12:47.021Z,98411.42
2019-02-07T01:15:17.984Z,98409.05
2019-02-07T01:17:48.790Z,98408.02
2019-02-07T01:20:19.519Z,98408.22
2019-02-07T01:22:50.013Z,98407.41
2019-02-07T01:25:21.948Z,98408.89
2019-02-07T01:27:53.359Z,98417.59
2019-02-07T01:30:24.263Z,98417.72
2019-02-07T01:32:55.187Z,98423.67
2019-02-07T01:35:27.173Z,98424.26
2019-02-07T01:37:58.047Z,98418.62
2019-02-07T01:40:29.052Z,98409.03
2019-02-07T01:42:59.865Z,98400.16
2019-02-07T01:45:30.500Z,98389.76
2019-02-07T01:48:01.019Z,98388.61
2019-02-07T01:50:31.950Z,98390.21
2019-02-07T01:53:02.763Z,98384.57
2019-02-07T01:55:33.300Z,98382.69
2019-02-07T01:58:04.070Z,98382.97
2019-02-07T02:00:35.156Z,98384.69
2019-02-07T02:03:06.220Z,98391.82
2019-02-07T02:05:36.880Z,98385.22
2019-02-07T02:08:07.621Z,98381.02
2019-02-07T02:10:38.150Z,98380.44
2019-02-07T02:13:08.951Z,98385.99
2019-02-07T02:15:39.485Z,98382.30
2019-02-07T02:18:10.263Z,98373.55
2019-02-07T02:20:40.859Z,98364.78
2019-02-07T02:23:11.490Z,98363.00
2019-02-07T02:25:42.324Z,98357.19
2019-02-07T02:28:13.050Z,98349.02
2019-02-07T02:30:44.235Z,98342.72
2019-02-07T02:33:14.936Z,98352.35
2019-02-07T02:35:45.465Z,98344.33
2019-02-07T02:38:16.010Z,98344.97
2019-02-07T02:40:46.522Z,98338.55
2019-02-07T02:43:17.207Z,98337.31
2019-02-07T02:45:48.026Z,98341.63
2019-02-07T02:48:18.550Z,98340.47
2019-02-07T02:50:49.102Z,98341.70
2019-02-07T02:53:19.899Z,98340.55
2019-02-07T02:55:51.436Z,98334.38
2019-02-07T02:58:22.253Z,98331.52
2019-02-07T03:01:27.132Z,98329.24
2019-02-07T03:04:25.620Z,98321.35
2019-02-07T03:07:18.114Z,98310.23
2019-02-07T03:10:13.794Z,98309.03
2019-02-07T03:13:01.967Z,98302.16
2019-02-07T03:15:49.786Z,98303.89
2019-02-07T03:18:37.037Z,98294.06
2019-02-07T03:21:29.274Z,98292.53
2019-02-07T03:24:13.858Z,98291.80
2019-02-07T03:27:12.216Z,98290.36
2019-02-07T03:30:17.035Z,98294.95
2019-02-07T03:33:10.098Z,98291.21
2019-02-07T03:36:06.054Z,98291.11
2019-02-07T03:38:58.668Z,98283.80
2019-02-07T03:41:46.003Z,98265.78
2019-02-07T03:44:39.153Z,98287.22
2019-02-07T03:47:27.705Z,98278.98
2019-02-07T03:50:35.565Z,98275.22
2019-02-07T03:53:27.752Z,98289.06
2019-02-07T03:56:19.864Z,98279.41
2019-02-07T03:59:08.058Z,98277.70
2019-02-07T04:01:48.570Z,98266.64
2019-02-07T04:04:27.567Z,98255.75
2019-02-07T04:07:17.188Z,98249.22
2019-02-07T04:10:06.639Z,98252.88
2019-02-07T04:12:57.408Z,98243.36
2019-02-07T04:15:49.910Z,98238.77
2019-02-07T04:18:47.082Z,98240.48
2019-02-07T04:21:34.982Z,98241.27
2019-02-07T04:24:30.676Z,98235.50
2019-02-07T04:27:14.390Z,98224.45
2019-02-07T04:30:06.717Z,98224.65
2019-02-07T04:32:51.885Z,98224.28
2019-02-07T04:35:47.194Z,98235.45
2019-02-07T04:38:33.872Z,98235.05
2019-02-07T04:41:22.201Z,98225.55
2019-02-07T04:44:17.995Z,98225.84
2019-02-07T04:47:06.168Z,98215.67
2019-02-07T04:49:49.144Z,98217.64
2019-02-07T04:52:36.971Z,98218.00
2019-02-07T04:55:35.745Z,98207.01
2019-02-07T04:58:25.678Z,98207.24
2019-02-07T05:01:24.340Z,98201.82
2019-02-07T05:04:06.598Z,98200.02
2019-02-07T05:06:54.976Z,98202.00
2019-02-07T05:09:43.025Z,98220.59
2019-02-07T05:12:35.535Z,98210.17
2019-02-07T05:15:38.270Z,98205.95
2019-02-07T05:18:21.470Z,98200.68
2019-02-07T05:21:09.826Z,98205.34
2019-02-07T05:23:57.648Z,98211.61
2019-02-07T05:26:54.297Z,98208.86
2019-02-07T05:29:41.292Z,98212.63
2019-02-07T05:32:20.821Z,98197.91
2019-02-07T05:35:01.620Z,98204.28
2019-02-07T05:37:49.780Z,98210.77
2019-02-07T05:40:31.521Z,98205.55
2019-02-07T05:43:21.740Z,98202.81
2019-02-07T05:46:10.213Z,98217.09
2019-02-07T05:49:02.057Z,98200.89
2019-02-07T05:52:00.930Z,98199.68
2019-02-07T05:54:49.319Z,98209.45
2019-02-07T05:57:37.375Z,98213.08
2019-02-07T06:00:27.506Z,98210.26
2019-02-07T06:03:16.061Z,98200.33
2019-02-07T06:06:04.165Z,98191.98
2019-02-07T06:08:52.049Z,98178.49
2019-02-07T06:11:50.464Z,98179.75
2019-02-07T06:14:55.048Z,98186.43
2019-02-07T06:17:44.561Z,98176.51
2019-02-07T06:20:32.874Z,98175.84
2019-02-07T06:23:32.341Z,98171.20
2019-02-07T06:26:13.779Z,98166.61
2019-02-07T06:28:57.617Z,98160.65
2019-02-07T06:31:45.117Z,98167.03
2019-02-07T06:34:33.085Z,98178.72
2019-02-07T06:37:34.734Z,98181.99
2019-02-07T06:40:25.756Z,98178.52
2019-02-07T06:43:13.971Z,98172.10
2019-02-07T06:46:22.030Z,98173.84
2019-02-07T06:49:26.428Z,98156.72
2019-02-07T06:52:15.869Z,98168.77
2019-02-07T06:55:00.730Z,98168.53
2019-02-07T06:58:02.342Z,98169.06
2019-02-07T07:01:03.722Z,98168.59
2019-02-07T07:03:53.446Z,98158.84
2019-02-07T07:06:43.741Z,98157.22
2019-02-07T07:09:31.833Z,98159.56
2019-02-07T07:12:20.433Z,98153.81
2019-02-07T07:15:09.838Z,98157.07
2019-02-07T07:17:51.736Z,98152.27
2019-02-07T07:20:47.657Z,98159.52
2019-02-07T07:23:48.226Z,98156.54
2019-02-07T07:26:36.027Z,98155.91
2019-02-07T07:29:34.591Z,98151.14
2019-02-07T07:32:23.139Z,98145.62
2019-02-07T07:35:18.366Z,98147.63
2019-02-07T07:38:16.981Z,98138.43
2019-02-07T07:41:06.105Z,98148.78
2019-02-07T07:43:54.558Z,98133.37
2019-02-07T07:46:43.019Z,98134.88
2019-02-07T07:49:44.637Z,98131.20
2019-02-07T07:52:33.982Z,98113.88
2019-02-07T07:55:13.858Z,98117.81
2019-02-07T07:58:02.396Z,98113.83
2019-02-07T08:00:51.939Z,98113.41
2019-02-07T08:03:40.060Z,98103.34
2019-02-07T08:06:18.967Z,98101.92
2019-02-07T08:09:20.816Z,98094.59
2019-02-07T08:12:16.953Z,98095.73
2019-02-07T08:15:18.461Z,98108.16
2019-02-07T08:18:06.580Z,98106.71
2019-02-07T08:21:02.168Z,98106.91
2019-02-07T08:23:45.756Z,98108.91
2019-02-07T08:26:34.020Z,98111.66
2019-02-07T08:29:22.383Z,98109.38
2019-02-07T08:32:14.815Z,98107.52
2019-02-07T08:34:58.819Z,98096.66
2019-02-07T08:37:54.983Z,98096.41
2019-02-07T08:40:37.228Z,98090.01
2019-02-07T08:43:44.989Z,98088.92
2019-02-07T08:46:49.691Z,98090.28
2019-02-07T08:49:38.084Z,98092.38
2019-02-07T08:52:30.886Z,98090.55
2019-02-07T08:55:23.088Z,98088.13
2019-02-07T08:58:26.377Z,98091.31
2019-02-07T09:01:22.223Z,98090.92
2019-02-07T09:04:23.616Z,98088.67
2019-02-07T09:07:13.058Z,98085.73
2019-02-07T09:09:53.234Z,98084.69
2019-02-07T09:12:42.735Z,98079.97
2019-02-07T09:15:32.366Z,98076.75
2019-02-07T09:18:29.055Z,98077.20
2019-02-07T09:21:17.951Z,98070.42
2019-02-07T09:24:22.634Z,98065.64
2019-02-07T09:27:27.090Z,98067.20
2019-02-07T09:30:25.614Z,98069.19
2019-02-07T09:33:27.349Z,98061.02
2019-02-07T09:36:15.590Z,98063.31
2019-02-07T09:39:07.940Z,98055.67
2019-02-07T09:42:15.630Z,98055.16
2019-02-07T09:45:20.025Z,98048.56
2019-02-07T09:48:21.631Z,98051.69
2019-02-07T09:51:10.121Z,98049.20
2019-02-07T09:54:11.854Z,98047.72
2019-02-07T09:57:04.067Z,98049.34
2019-02-07T09:59:47.860Z,98045.08
2019-02-07T10:02:27.939Z,98042.29
2019-02-07T10:05:23.603Z,98041.66
2019-02-07T10:08:15.970Z,98043.19
2019-02-07T10:11:07.512Z,98042.23
2019-02-07T10:13:59.811Z,98035.58
2019-02-07T10:16:47.957Z,98040.00
2019-02-07T10:19:36.536Z,98035.20
2019-02-07T10:22:28.927Z,98037.27
2019-02-07T10:25:21.490Z,98037.09
2019-02-07T10:28:06.998Z,98036.70
2019-02-07T10:31:13.432Z,98026.77
2019-02-07T10:34:01.646Z,98027.27
2019-02-07T10:37:07.995Z,98027.17
2019-02-07T10:40:13.302Z,98027.34
2019-02-07T10:43:01.661Z,98020.28
2019-02-07T10:45:54.198Z,98021.41
2019-02-07T10:48:49.832Z,98022.10
2019-02-07T10:51:39.068Z,98020.11
2019-02-07T10:54:30.022Z,98019.52
2019-02-07T10:57:27.033Z,98020.83
2019-02-07T11:00:19.870Z,98013.90
2019-02-07T11:03:11.371Z,98008.34
2019-02-07T11:06:16.459Z,98003.30
2019-02-07T11:09:04.628Z,97983.72
2019-02-07T11:11:50.225Z,98007.54
2019-02-07T11:14:39.897Z,98008.30
2019-02-07T11:17:32.345Z,98005.70
2019-02-07T11:20:27.927Z,97995.99
2019-02-07T11:23:32.316Z,97992.26
2019-02-07T11:26:28.072Z,97993.73
2019-02-07T11:29:16.659Z,97990.88
2019-02-07T11:32:09.158Z,97985.29
2019-02-07T11:34:59.667Z,97982.30
2019-02-07T11:37:47.732Z,97982.84
2019-02-07T11:40:52.128Z,97979.12
2019-02-07T11:43:37.879Z,97981.83
2019-02-07T11:46:27.591Z,97974.49
2019-02-07T11:49:23.172Z,97979.17
2019-02-07T11:52:19.032Z,97988.13
2019-02-07T11:55:11.295Z,97981.55
2019-02-07T11:58:16.327Z,97971.74
2019-02-07T12:00:57.887Z,97979.80
2019-02-07T12:03:56.361Z,97974.47
2019-02-07T12:06:40.084Z,97974.83
2019-02-07T12:09:33.379Z,97969.17
2019-02-07T12:12:26.096Z,97971.59
2019-02-07T12:15:14.368Z,97962.88
2019-02-07T12:18:14.847Z,97945.17
2019-02-07T12:21:08.559Z,97956.86
2019-02-07T12:24:05.840Z,97955.48
2019-02-07T12:27:07.647Z,97951.81
2019-02-07T12:30:00.402Z,97947.88
2019-02-07T12:32:50.540Z,97950.34
2019-02-07T12:35:51.889Z,97946.06
2019-02-07T12:39:01.998Z,97947.86
2019-02-07T12:41:49.979Z,97947.94
2019-02-07T12:44:45.591Z,97943.52
2019-02-07T12:47:40.878Z,97939.06
2019-02-07T12:50:46.736Z,97942.23
2019-02-07T12:53:48.555Z,97940.23
2019-02-07T12:56:45.901Z,97938.72
2019-02-07T12:59:47.158Z,97937.83
2019-02-07T13:02:30.458Z,97932.06
2019-02-07T13:05:20.127Z,97938.16
2019-02-07T13:08:12.716Z,97947.45
2019-02-07T13:11:09.701Z,97947.16
2019-02-07T13:13:56.149Z,97951.16
2019-02-07T13:16:52.686Z,97951.27
2019-02-07T13:19:50.981Z,97947.47
2019-02-07T13:22:52.709Z,97937.59
2019-02-07T13:25:40.309Z,97942.83
2019-02-07T13:28:33.314Z,97941.17
2019-02-07T13:31:29.253Z,97948.39
2019-02-07T13:34:29.125Z,97945.83
2019-02-07T13:37:15.261Z,97947.64
2019-02-07T13:40:03.903Z,97947.05
2019-02-07T13:42:51.885Z,97948.07
2019-02-07T13:45:44.420Z,97939.53
2019-02-07T13:48:24.492Z,97931.52
2019-02-07T13:51:13.006Z,97932.10
2019-02-07T13:54:02.547Z,97926.81
2019-02-07T13:56:54.975Z,97920.93
2019-02-07T13:59:39.519Z,97918.52
2019-02-07T14:02:38.373Z,97912.16
2019-02-07T14:05:28.417Z,97928.16
2019-02-07T14:08:21.211Z,97934.35
2019-02-07T14:11:02.483Z,97938.77
2019-02-07T14:13:55.379Z,97945.70
2019-02-07T14:16:45.223Z,97942.75
2019-02-07T14:19:33.491Z,97940.87
2019-02-07T14:22:22.164Z,97946.20
2019-02-07T14:25:07.957Z,97947.52
2019-02-07T14:27:55.995Z,97952.20
2019-02-07T14:30:55.578Z,97946.20
2019-02-07T14:33:44.827Z,97942.25
2019-02-07T14:36:34.489Z,97946.73
2019-02-07T14:39:32.808Z,97950.37
2019-02-07T14:42:21.006Z,97948.65
2019-02-07T14:45:16.631Z,97944.08
2019-02-07T14:47:47.761Z,97955.57
2019-02-07T14:50:18.891Z,97949.02
2019-02-07T14:52:50.561Z,97947.34
2019-02-07T14:55:21.483Z,97953.23
2019-02-07T14:57:52.545Z,97959.88
2019-02-07T15:00:24.905Z,97968.97
2019-02-07T15:02:55.581Z,97974.67
2019-02-07T15:05:26.437Z,97981.83
2019-02-07T15:07:56.993Z,97976.18
2019-02-07T15:10:28.776Z,97977.47
2019-02-07T15:13:01.296Z,97983.63
2019-02-07T15:15:32.159Z,97981.70
2019-02-07T15:18:02.763Z,97980.45
2019-02-07T15:20:33.614Z,97974.63
2019-02-07T15:23:04.911Z,97982.27
2019-02-07T15:25:35.792Z,97982.17
2019-02-07T15:28:06.539Z,97985.51
2019-02-07T15:30:37.842Z,97988.66
2019-02-07T15:33:08.674Z,97992.50
2019-02-07T15:35:43.929Z,97989.52
2019-02-07T15:38:14.743Z,97989.78
2019-02-07T15:40:46.085Z,97996.80
2019-02-07T15:43:17.286Z,97996.55
2019-02-07T15:45:47.842Z,97999.50
2019-02-07T15:48:18.908Z,98004.20
2019-02-07T15:50:49.783Z,98005.94
2019-02-07T15:53:20.618Z,98012.62
2019-02-07T15:55:51.933Z,98020.64
2019-02-07T15:58:31.656Z,98017.77
2019-02-07T16:01:08.524Z,98013.20
2019-02-07T16:04:03.775Z,98017.73
2019-02-07T16:06:34.843Z,98017.21
2019-02-07T16:09:08.682Z,98015.78
2019-02-07T16:11:40.109Z,98019.47
2019-02-07T16:14:10.696Z,98021.64
2019-02-07T16:16:41.546Z,98014.06
2019-02-07T16:19:12.116Z,98018.33
2019-02-07T16:21:42.973Z,98019.20
2019-02-07T16:24:15.911Z,98019.52
2019-02-07T16:26:46.094Z,98017.38
2019-02-07T16:29:16.694Z,98013.02
2019-02-07T16:31:47.526Z,98016.53
2019-02-07T16:34:19.152Z,98014.14
2019-02-07T16:36:50.063Z,98021.28
2019-02-07T16:39:21.497Z,98017.19
2019-02-07T16:41:52.139Z,98013.35
2019-02-07T16:44:23.137Z,98006.97
2019-02-07T16:46:54.571Z,98012.33
2019-02-07T16:49:25.194Z,98006.16
2019-02-07T16:51:55.749Z,98014.80
2019-02-07T16:54:26.387Z,98016.14
2019-02-07T16:56:57.026Z,98017.34
2019-02-07T16:59:29.169Z,98018.83
2019-02-07T17:01:59.671Z,98020.98
2019-02-07T17:04:31.065Z,98024.00
2019-02-07T17:07:01.776Z,98027.40
2019-02-07T17:09:42.650Z,98043.46
2019-02-07T17:12:13.418Z,98035.80
2019-02-07T17:15:07.462Z,98037.73
2019-02-07T17:17:38.177Z,98043.86
2019-02-07T17:20:21.783Z,98037.48
2019-02-07T17:22:52.943Z,98037.25
2019-02-07T17:25:23.935Z,98041.80
2019-02-07T17:27:54.722Z,98042.93
2019-02-07T17:30:25.441Z,98054.52
2019-02-07T17:32:56.277Z,98051.50
2019-02-07T17:35:26.972Z,98054.89
2019-02-07T17:37:57.707Z,98064.97
2019-02-07T17:40:29.036Z,98066.38
2019-02-07T17:42:59.738Z,98069.41
2019-02-07T17:45:31.611Z,98075.55
2019-02-07T17:48:02.169Z,98076.39
2019-02-07T17:50:35.941Z,98089.55
2019-02-07T17:53:08.504Z,98085.43
2019-02-07T17:55:39.184Z,98089.38
2019-02-07T17:58:10.632Z,98093.75
2019-02-07T18:01:13.581Z,98106.86
2019-02-07T18:03:44.751Z,98109.39
2019-02-07T18:06:15.892Z,98102.07
2019-02-07T18:08:46.815Z,98099.91
2019-02-07T18:11:26.298Z,98107.33
2019-02-07T18:13:56.885Z,98113.77
2019-02-07T18:16:29.160Z,98124.12
2019-02-07T18:18:59.791Z,98128.97
2019-02-07T18:21:34.199Z,98129.61
2019-02-07T18:24:03.112Z,98146.23
2019-02-07T18:26:34.083Z,98149.36
2019-02-07T18:29:05.202Z,98153.70
2019-02-07T18:31:36.385Z,98157.66
2019-02-07T18:34:07.067Z,98162.15
2019-02-07T18:36:37.953Z,98163.18
2019-02-07T18:39:10.713Z,98162.80
2019-02-07T18:41:41.399Z,98167.47
2019-02-07T18:44:12.455Z,98173.02
2019-02-07T18:46:43.236Z,98165.57
2019-02-07T18:49:13.908Z,98166.05
2019-02-07T18:51:45.906Z,98171.89
2019-02-07T18:54:16.560Z,98182.86
2019-02-07T18:56:47.626Z,98185.03
2019-02-07T18:59:18.242Z,98190.78
2019-02-07T19:01:49.320Z,98193.92
2019-02-07T19:04:20.420Z,98202.20
2019-02-07T19:06:51.010Z,98200.78
2019-02-07T19:09:21.611Z,98202.71
2019-02-07T19:11:52.546Z,98206.16
2019-02-07T19:14:23.182Z,98201.35
2019-02-07T19:16:54.014Z,98207.58
2019-02-07T19:19:24.853Z,98212.48
2019-02-07T19:21:57.445Z,98217.42
2019-02-07T19:24:31.961Z,98209.91
2019-02-07T19:27:02.704Z,98215.13
2019-02-07T19:29:33.364Z,98216.80
2019-02-07T19:32:04.026Z,98218.27
2019-02-07T19:34:35.194Z,98210.92
2019-02-07T19:37:06.123Z,98217.54
2019-02-07T19:39:37.390Z,98218.33
2019-02-07T19:42:08.356Z,98218.88
2019-02-07T19:44:39.285Z,98215.41
2019-02-07T19:47:10.051Z,98219.69
2019-02-07T19:49:41.264Z,98219.91
2019-02-07T19:52:12.251Z,98222.89
2019-02-07T19:54:43.449Z,98226.07
2019-02-07T19:57:14.257Z,98233.97
2019-02-07T19:59:45.256Z,98234.59
2019-02-07T20:02:16.107Z,98236.69
2019-02-07T20:04:47.268Z,98234.03
2019-02-07T20:07:18.070Z,98230.77
2019-02-07T20:09:48.705Z,98234.52
2019-02-07T20:12:19.319Z,98236.80
2019-02-07T20:14:50.192Z,98236.38
2019-02-07T20:17:20.842Z,98240.59
2019-02-07T20:19:52.003Z,98245.97
2019-02-07T20:22:22.569Z,98246.03
2019-02-07T20:24:53.196Z,98248.89
2019-02-07T20:27:23.844Z,98255.87
2019-02-07T20:29:54.523Z,98253.48
2019-02-07T20:32:25.198Z,98252.38
2019-02-07T20:34:56.180Z,98250.22
2019-02-07T20:37:26.812Z,98253.20
2019-02-07T20:39:57.553Z,98252.43
2019-02-07T20:42:29.477Z,98251.95
2019-02-07T20:45:00.473Z,98257.52
2019-02-07T20:47:31.350Z,98260.73
2019-02-07T20:50:02.279Z,98260.88
2019-02-07T20:52:33.524Z,98262.69
2019-02-07T20:55:05.607Z,98268.91
2019-02-07T20:57:36.538Z,98271.03
2019-02-07T21:00:14.849Z,98267.84
2019-02-07T21:02:45.840Z,98267.55
2019-02-07T21:05:17.191Z,98263.61
2019-02-07T21:07:47.996Z,98270.56
2019-02-07T21:10:20.259Z,98270.41
2019-02-07T21:12:51.611Z,98268.30
2019-02-07T21:15:22.396Z,98267.49
2019-02-07T21:17:53.314Z,98264.60
2019-02-07T21:20:26.604Z,98270.07
2019-02-07T21:22:58.524Z,98279.21
2019-02-07T21:25:42.922Z,98284.34
2019-02-07T21:28:13.926Z,98283.70
2019-02-07T21:30:44.796Z,98289.96
2019-02-07T21:33:15.524Z,98288.29
2019-02-07T21:35:46.408Z,98286.38
2019-02-07T21:38:17.413Z,98297.05
2019-02-07T21:40:48.261Z,98296.93
2019-02-07T21:43:18.809Z,98304.30
2019-02-07T21:45:49.472Z,98305.70
2019-02-07T21:48:20.079Z,98308.80
2019-02-07T21:50:50.679Z,98317.92
2019-02-07T21:53:21.438Z,98320.38
2019-02-07T21:55:52.331Z,98324.66
2019-02-07T21:58:22.907Z,98324.76
2019-02-07T22:00:53.415Z,98325.54
2019-02-07T22:03:24.220Z,98322.81
2019-02-07T22:05:54.749Z,98328.61
2019-02-07T22:08:25.493Z,98326.60
2019-02-07T22:10:56.466Z,98325.81
2019-02-07T22:13:27.306Z,98329.53
2019-02-07T22:15:58.148Z,98330.57
2019-02-07T22:18:29.634Z,98338.73
2019-02-07T22:21:00.539Z,98342.25
2019-02-07T22:23:31.425Z,98342.39
2019-02-07T22:26:02.275Z,98344.88
2019-02-07T22:28:33.573Z,98349.23
2019-02-07T22:31:04.337Z,98351.50
2019-02-07T22:33:35.221Z,98356.47
2019-02-07T22:36:06.024Z,98357.36
2019-02-07T22:38:36.719Z,98358.56
2019-02-07T22:41:07.365Z,98366.34
2019-02-07T22:43:38.036Z,98363.45
2019-02-07T22:46:08.577Z,98360.89
2019-02-07T22:48:39.697Z,98359.72
2019-02-07T22:51:10.511Z,98362.85
2019-02-07T22:53:41.420Z,98366.98
2019-02-07T22:56:12.299Z,98371.94
2019-02-07T22:58:43.370Z,98367.45
2019-02-07T23:01:30.475Z,98367.97
2019-02-07T23:04:08.254Z,98369.80
2019-02-07T23:06:39.081Z,98378.49
2019-02-07T23:09:17.941Z,98379.88
2019-02-07T23:11:48.577Z,98378.75
2019-02-07T23:14:19.447Z,98383.52
2019-02-07T23:16:50.368Z,98386.53
2019-02-07T23:19:20.914Z,98386.95
2019-02-07T23:21:51.463Z,98389.22
2019-02-07T23:24:22.045Z,98387.34
2019-02-07T23:26:54.548Z,98383.50
2019-02-07T23:29:27.619Z,98384.81
2019-02-07T23:31:58.622Z,98391.09
2019-02-07T23:34:29.931Z,98387.58
2019-02-07T23:37:00.516Z,98392.00
2019-02-07T23:39:31.707Z,98396.39
2019-02-07T23:42:02.521Z,98396.09
2019-02-07T23:44:33.136Z,98394.00
2019-02-07T23:47:03.741Z,98397.48
2019-02-07T23:49:34.563Z,98397.78
2019-02-07T23:52:05.451Z,98399.98
2019-02-07T23:54:36.783Z,98395.70
2019-02-07T23:57:07.614Z,98394.81
2019-02-07T23:59:38.426Z,98385.17
